La Palma > ESTACION METEOROLÓGICA Hoya Grande - Garafia

DATOS ACTUALES Online

Ultima actulizacion 16 minutos

14 ºC

Temperatura

86

Humedad (%)

1022.1

Presión (mb)

0

Precipitación (mm)

7 NO

Viento (Km/h)

DATOS DIARIOS

Temperatura últimas 24 horas (ºC)

Humedad últimas 24 horas (%)

Presión atmosférica últimas 24 horas (mb)

Precipitaciones últimas 23 horas (mm)

Viento últimas 24 horas (Km/h)

Hora Temperatura (°C) ºC Precipitación (mm) mm Presión (mb) mb Humedad (%) % Viento (Km/h) km/h
28 - 10:00 14 0 1021 89 12 NO
28 - 11:00 15.3 0 1022 81 12 NO
28 - 12:00 17 0 1022 71 17 N
28 - 13:00 17.7 0 1022 74 18 N
28 - 14:00 17.2 0 1022 79 10 N
28 - 15:00 17.4 0 1021 78 8 N
28 - 16:00 16.9 0 1022 78 10 NO
28 - 17:00 16.3 0 1021 80 12 NO
28 - 18:00 15.6 0 1021 82 12 O
28 - 19:00 14.9 0 1021 85 13 O
28 - 20:00 13.8 0 1021 88 14 O
28 - 21:00 13.5 0 1021 90 17 O
28 - 22:00 13.5 0 1022 92 13 O
28 - 23:00 13.3 0 1022 94 12 O
29 - 00:00 12.9 0 1022 95 16 SO
29 - 01:00 12.6 0 1021 94 17 O
29 - 02:00 12.9 0 1021 93 10 O
29 - 03:00 12.3 0 1020 97 16 O
29 - 04:00 12.5 0 1020 98 16 NO
29 - 05:00 11.4 0 1020 98 12 O
29 - 06:00 11.5 0 1021 98 10 O
29 - 07:00 11.5 0 1021 97 12 O
29 - 08:00 12.4 0 1021 94 11 O
29 - 09:00 14.6 0 1022 82 11 NO
29 - 10:00 14 0 1022 86 7 NO
Apalmet utiliza cookies propias y de terceros para mejorar la usabilidad y la experiencia web. Política de cookies.